バンダルスリブガワン の空港の天気 - METARとTAF

ブルネイ国際空港 ( WBSB / BWN ) - ブルネイ バンダルスリブガワン
飛行場実況気象(Metar)
観測時間01/25 08:00 BNT (01/25 00:00 UTC)
風向・風速南東 1m/s
視程9000m
天気現象
少しの雲 雲底高度 460m
全天の4割程度の雲 雲底高度 4270m
全天の8割程度の雲 雲底高度 9140m
気温28℃
湿度84%
気圧1011hPa
METARWBSB 250000Z 13002KT 9000 FEW015 SCT140 BKN300 28/25 Q1011 NOSIG
過去の天気等 Google飛行場航空写真 Wunderground天気予報

過去48時間のMETAR

飛行場予報(TAF)
発表時間: 1/25 07:00 BNT (1/24 23:00 UTC)
予報対象時間: 25日8時 BNT ~ 26日14時 BNT
風向・風速南東 2m/s
視程10km以上
少しの雲 雲底高度 460m
25日11時 BNT ~ 25日13時 BNT に徐々に
風向・風速北北東 4m/s
少しの雲 雲底高度 520m
TAF WBSB 242300Z 2500/2606 14004KT 9999 FEW015
BECMG 2503/2505 02008KT FEW017